createdAt,value
2019-04-03T00:00:06.012Z,99.90
2019-04-03T00:02:35.323Z,99.90
2019-04-03T00:05:05.407Z,99.90
2019-04-03T00:07:35.882Z,99.90
2019-04-03T00:10:07.228Z,99.90
2019-04-03T00:12:36.811Z,99.90
2019-04-03T00:15:07.542Z,99.90
2019-04-03T00:17:36.873Z,99.90
2019-04-03T00:20:07.439Z,99.90
2019-04-03T00:22:37.761Z,99.90
2019-04-03T00:25:07.552Z,99.90
2019-04-03T00:27:37.011Z,99.90
2019-04-03T00:30:07.309Z,99.90
2019-04-03T00:32:36.680Z,99.90
2019-04-03T00:35:06.543Z,99.90
2019-04-03T00:37:35.889Z,99.90
2019-04-03T00:40:05.688Z,99.90
2019-04-03T00:42:35.066Z,99.90
2019-04-03T00:45:05.045Z,99.90
2019-04-03T00:47:34.452Z,99.90
2019-04-03T00:50:03.881Z,99.90
2019-04-03T00:52:33.230Z,99.90
2019-04-03T00:55:02.630Z,99.90
2019-04-03T00:57:31.964Z,99.90
2019-04-03T01:00:01.270Z,99.90
2019-04-03T01:02:30.576Z,99.90
2019-04-03T01:04:59.987Z,99.90
2019-04-03T01:07:29.804Z,99.90
2019-04-03T01:09:59.487Z,99.90
2019-04-03T01:12:31.296Z,99.90
2019-04-03T01:15:01.526Z,99.90
2019-04-03T01:17:32.659Z,99.90
2019-04-03T01:20:02.514Z,99.90
2019-04-03T01:22:31.788Z,99.90
2019-04-03T01:25:03.202Z,99.90
2019-04-03T01:27:32.578Z,99.90
2019-04-03T01:30:01.913Z,99.90
2019-04-03T01:32:31.289Z,99.90
2019-04-03T01:35:00.687Z,99.90
2019-04-03T01:37:30.007Z,99.90
2019-04-03T01:39:59.333Z,99.90
2019-04-03T01:42:28.677Z,99.90
2019-04-03T01:44:57.975Z,99.90
2019-04-03T01:47:27.784Z,99.90
2019-04-03T01:49:58.568Z,99.90
2019-04-03T01:52:31.037Z,99.90
2019-04-03T01:54:59.659Z,99.90
2019-04-03T01:57:29.172Z,99.90
2019-04-03T01:59:58.800Z,99.90
2019-04-03T02:02:28.564Z,99.90
2019-04-03T02:04:58.413Z,99.90
2019-04-03T02:07:27.855Z,99.90
2019-04-03T02:09:57.257Z,99.90
2019-04-03T02:12:26.902Z,99.90
2019-04-03T02:14:56.533Z,99.90
2019-04-03T02:17:26.058Z,99.90
2019-04-03T02:19:56.598Z,99.90
2019-04-03T02:22:27.587Z,99.90
2019-04-03T02:24:57.737Z,99.90
2019-04-03T02:27:27.255Z,99.90
2019-04-03T02:29:59.394Z,99.90
2019-04-03T02:32:29.249Z,99.90
2019-04-03T02:34:59.049Z,99.90
2019-04-03T02:37:28.679Z,99.90
2019-04-03T02:40:00.335Z,99.90
2019-04-03T02:42:30.169Z,99.90
2019-04-03T02:45:02.201Z,99.90
2019-04-03T02:47:33.624Z,99.90
2019-04-03T02:50:03.705Z,99.90
2019-04-03T02:52:33.545Z,99.90
2019-04-03T02:55:06.711Z,99.90
2019-04-03T02:57:35.170Z,99.90
2019-04-03T03:00:05.336Z,99.90
2019-04-03T03:02:35.346Z,99.90
2019-04-03T03:05:05.945Z,99.90
2019-04-03T03:07:36.506Z,99.90
2019-04-03T03:10:08.298Z,99.90
2019-04-03T03:12:39.884Z,99.90
2019-04-03T03:15:11.915Z,99.90
2019-04-03T03:17:41.351Z,99.90
2019-04-03T03:20:11.135Z,99.90
2019-04-03T03:22:42.027Z,99.90
2019-04-03T03:25:11.866Z,99.90
2019-04-03T03:27:42.748Z,99.90
2019-04-03T03:30:34.180Z,99.90
2019-04-03T03:32:44.921Z,99.90
2019-04-03T03:35:22.906Z,99.90
2019-04-03T03:37:47.586Z,99.90
2019-04-03T03:40:17.590Z,99.90
2019-04-03T03:42:48.054Z,99.90
2019-04-03T03:45:21.643Z,99.90
2019-04-03T03:47:53.301Z,99.90
2019-04-03T03:50:26.691Z,99.90
2019-04-03T03:52:58.430Z,99.90
2019-04-03T03:55:29.080Z,99.90
2019-04-03T03:57:59.885Z,99.90
2019-04-03T04:00:30.330Z,99.90
2019-04-03T04:03:00.794Z,99.90
2019-04-03T04:05:30.846Z,99.90
2019-04-03T04:08:01.088Z,99.90
2019-04-03T04:10:35.028Z,99.90
2019-04-03T04:13:02.934Z,99.90
2019-04-03T04:15:33.283Z,99.90
2019-04-03T04:18:04.145Z,99.90
2019-04-03T04:20:36.583Z,99.90
2019-04-03T04:23:05.546Z,99.90
2019-04-03T04:25:37.414Z,99.90
2019-04-03T04:28:09.202Z,99.90
2019-04-03T04:30:38.340Z,99.90
2019-04-03T04:33:07.919Z,99.90
2019-04-03T04:35:37.427Z,99.90
2019-04-03T04:38:07.092Z,99.90
2019-04-03T04:40:36.812Z,99.90
2019-04-03T04:43:08.197Z,99.90
2019-04-03T04:45:38.003Z,99.90
2019-04-03T04:48:07.896Z,99.90
2019-04-03T04:50:37.604Z,99.90
2019-04-03T04:53:07.073Z,99.90
2019-04-03T04:58:12.245Z,99.90
2019-04-03T05:00:41.968Z,99.90
2019-04-03T05:03:11.565Z,99.90
2019-04-03T05:05:41.358Z,99.90
2019-04-03T05:08:10.957Z,99.90
2019-04-03T05:10:40.605Z,99.90
2019-04-03T05:13:15.256Z,99.90
2019-04-03T05:15:44.238Z,99.90
2019-04-03T05:18:13.840Z,99.90
2019-04-03T05:20:43.450Z,99.90
2019-04-03T05:23:13.009Z,99.90
2019-04-03T05:25:42.764Z,99.90
2019-04-03T05:28:12.396Z,99.90
2019-04-03T05:30:42.056Z,99.90
2019-04-03T05:33:11.875Z,99.90
2019-04-03T05:35:41.337Z,99.90
2019-04-03T05:38:11.236Z,99.90
2019-04-03T05:40:41.226Z,99.90
2019-04-03T05:43:11.124Z,99.90
2019-04-03T05:45:42.118Z,99.90
2019-04-03T05:48:13.590Z,99.90
2019-04-03T05:50:43.589Z,99.90
2019-04-03T05:53:13.384Z,99.90
2019-04-03T05:55:44.440Z,99.90
2019-04-03T05:58:16.473Z,99.90
2019-04-03T06:00:45.339Z,99.90
2019-04-03T06:03:14.893Z,99.90
2019-04-03T06:05:49.232Z,99.90
2019-04-03T06:08:19.956Z,99.90
2019-04-03T06:10:50.439Z,99.90
2019-04-03T06:13:20.180Z,99.90
2019-04-03T06:15:52.771Z,99.90
2019-04-03T06:18:20.812Z,99.90
2019-04-03T06:20:50.611Z,99.90
2019-04-03T06:23:21.413Z,99.90
2019-04-03T06:25:51.736Z,99.90
2019-04-03T06:28:21.319Z,99.90
2019-04-03T06:30:52.773Z,99.90
2019-04-03T06:33:24.116Z,99.90
2019-04-03T06:35:54.104Z,99.90
2019-04-03T06:38:24.611Z,99.90
2019-04-03T06:40:55.168Z,99.90
2019-04-03T06:43:24.966Z,99.90
2019-04-03T06:45:56.999Z,99.90
2019-04-03T06:48:29.721Z,99.90
2019-04-03T06:50:59.960Z,99.90
2019-04-03T06:53:30.184Z,99.90
2019-04-03T06:56:00.059Z,99.90
2019-04-03T06:58:38.218Z,99.90
2019-04-03T07:01:04.739Z,99.90
2019-04-03T07:03:35.730Z,99.90
2019-04-03T07:06:05.956Z,99.90
2019-04-03T07:08:38.101Z,99.90
2019-04-03T07:11:07.786Z,99.90
2019-04-03T07:13:37.522Z,99.90
2019-04-03T07:16:07.204Z,99.90
2019-04-03T07:18:37.462Z,99.90
2019-04-03T07:21:07.361Z,99.90
2019-04-03T07:23:37.316Z,99.90
2019-04-03T07:26:07.012Z,99.90
2019-04-03T07:28:36.843Z,99.90
2019-04-03T07:31:08.134Z,99.90
2019-04-03T07:33:38.294Z,99.90
2019-04-03T07:36:11.317Z,99.90
2019-04-03T07:38:41.125Z,99.90
2019-04-03T07:41:11.259Z,99.90
2019-04-03T07:43:41.523Z,99.90
2019-04-03T07:46:13.616Z,99.90
2019-04-03T07:48:43.743Z,99.90
2019-04-03T07:51:16.126Z,99.90
2019-04-03T07:53:46.287Z,99.90
2019-04-03T07:56:17.778Z,99.90
2019-04-03T07:58:47.848Z,99.90
2019-04-03T08:01:18.822Z,99.90
2019-04-03T08:03:52.443Z,99.90
2019-04-03T08:06:21.868Z,99.90
2019-04-03T08:09:05.594Z,99.90
2019-04-03T08:11:23.107Z,99.90
2019-04-03T08:13:52.800Z,99.90
2019-04-03T08:16:22.341Z,99.90
2019-04-03T08:18:52.446Z,99.90
2019-04-03T08:21:21.931Z,99.90
2019-04-03T08:23:51.538Z,99.90
2019-04-03T08:26:21.135Z,99.90
2019-04-03T08:28:51.281Z,99.90
2019-04-03T08:31:20.893Z,99.90
2019-04-03T08:33:50.768Z,99.90
2019-04-03T08:36:25.394Z,99.90
2019-04-03T08:38:51.381Z,99.90
2019-04-03T08:41:23.410Z,99.90
2019-04-03T08:43:51.978Z,99.90
2019-04-03T08:46:21.611Z,99.90
2019-04-03T08:48:52.738Z,99.90
2019-04-03T08:51:23.720Z,99.90
2019-04-03T08:53:54.537Z,99.90
2019-04-03T08:56:24.340Z,99.90
2019-04-03T08:58:57.263Z,99.90
2019-04-03T09:01:28.261Z,99.90
2019-04-03T09:03:57.770Z,99.90
2019-04-03T09:06:27.135Z,99.90
2019-04-03T09:08:58.172Z,99.90
2019-04-03T09:11:28.918Z,99.90
2019-04-03T09:13:58.978Z,99.90
2019-04-03T09:16:30.247Z,99.90
2019-04-03T09:18:59.677Z,99.90
2019-04-03T09:21:29.812Z,99.90
2019-04-03T09:24:00.141Z,99.90
2019-04-03T09:26:29.946Z,99.90
2019-04-03T09:29:00.041Z,99.90
2019-04-03T09:31:29.755Z,99.90
2019-04-03T09:33:59.344Z,99.90
2019-04-03T09:36:28.816Z,99.90
2019-04-03T09:38:58.643Z,99.90
2019-04-03T09:41:28.362Z,99.90
2019-04-03T09:43:57.921Z,99.90
2019-04-03T09:46:31.486Z,99.90
2019-04-03T09:49:05.771Z,99.90
2019-04-03T09:51:35.852Z,99.90
2019-04-03T09:54:06.021Z,99.90
2019-04-03T09:56:37.523Z,99.90
2019-04-03T09:59:08.045Z,99.90
2019-04-03T10:01:37.868Z,99.90
2019-04-03T10:04:08.370Z,99.90
2019-04-03T10:06:38.888Z,99.90
2019-04-03T10:09:11.744Z,99.90
2019-04-03T10:11:41.217Z,99.90
2019-04-03T10:14:11.153Z,99.90
2019-04-03T10:16:41.018Z,99.90
2019-04-03T10:19:12.449Z,99.90
2019-04-03T10:21:42.410Z,99.90
2019-04-03T10:24:12.472Z,99.90
2019-04-03T10:26:42.652Z,99.90
2019-04-03T10:29:12.373Z,99.90
2019-04-03T10:31:42.713Z,99.90
2019-04-03T10:34:13.694Z,99.90
2019-04-03T10:36:43.795Z,99.90
2019-04-03T10:39:14.539Z,99.90
2019-04-03T10:41:43.939Z,99.90
2019-04-03T10:44:13.780Z,99.90
2019-04-03T10:46:43.611Z,99.90
2019-04-03T10:49:13.025Z,99.90
2019-04-03T10:51:42.694Z,99.90
2019-04-03T10:54:12.564Z,99.90
2019-04-03T10:56:42.258Z,99.90
2019-04-03T10:59:13.668Z,99.90
2019-04-03T11:01:43.520Z,99.90
2019-04-03T11:04:13.179Z,99.90
2019-04-03T11:06:43.354Z,99.90
2019-04-03T11:09:13.382Z,99.90
2019-04-03T11:11:44.055Z,99.90
2019-04-03T11:14:13.582Z,99.90
2019-04-03T11:16:46.478Z,99.90
2019-04-03T11:19:15.837Z,99.90
2019-04-03T11:21:45.572Z,99.90
2019-04-03T11:24:15.438Z,99.90
2019-04-03T11:26:45.195Z,99.90
2019-04-03T11:29:15.334Z,99.90
2019-04-03T11:31:44.917Z,99.90
2019-04-03T11:34:17.969Z,99.90
2019-04-03T11:36:48.252Z,99.90
2019-04-03T11:39:17.877Z,99.90
2019-04-03T11:41:48.289Z,99.90
2019-04-03T11:44:18.103Z,99.90
2019-04-03T11:46:50.383Z,99.90
2019-04-03T11:49:20.887Z,99.90
2019-04-03T11:51:50.961Z,99.90
2019-04-03T11:54:20.660Z,99.90
2019-04-03T11:56:50.277Z,99.90
2019-04-03T11:59:23.175Z,99.90
2019-04-03T12:01:52.499Z,99.90
2019-04-03T12:04:22.990Z,99.90
2019-04-03T12:06:53.971Z,99.90
2019-04-03T12:09:24.449Z,99.90
2019-04-03T12:11:55.596Z,99.90
2019-04-03T12:14:25.827Z,99.80
2019-04-03T12:16:59.616Z,99.90
2019-04-03T12:19:30.429Z,99.60
2019-04-03T12:22:00.922Z,99.90
2019-04-03T12:24:30.934Z,97.80
2019-04-03T12:27:01.678Z,99.90
2019-04-03T12:29:32.165Z,98.70
2019-04-03T12:32:04.030Z,99.90
2019-04-03T12:34:37.586Z,99.50
2019-04-03T12:37:10.472Z,98.30
2019-04-03T12:39:40.865Z,99.90
2019-04-03T12:42:10.926Z,97.60
2019-04-03T12:44:40.979Z,96.60
2019-04-03T12:47:13.151Z,96.40
2019-04-03T12:49:43.331Z,95.50
2019-04-03T12:52:13.404Z,95.50
2019-04-03T12:54:43.396Z,95.50
2019-04-03T12:57:13.167Z,94.90
2019-04-03T12:59:46.599Z,93.70
2019-04-03T13:02:15.863Z,94.50
2019-04-03T13:04:51.892Z,95.10
2019-04-03T13:07:21.653Z,93.70
2019-04-03T13:09:53.445Z,93.60
2019-04-03T13:12:26.121Z,92.50
2019-04-03T13:14:54.347Z,93.20
2019-04-03T13:17:24.001Z,93.00
2019-04-03T13:19:53.424Z,90.80
2019-04-03T13:22:23.343Z,92.00
2019-04-03T13:24:53.249Z,92.20
2019-04-03T13:27:22.938Z,92.80
2019-04-03T13:29:52.368Z,85.90
2019-04-03T13:32:23.131Z,87.90
2019-04-03T13:34:53.077Z,85.90
2019-04-03T13:37:23.321Z,85.60
2019-04-03T13:39:53.311Z,89.80
2019-04-03T13:42:23.127Z,91.60
2019-04-03T13:44:52.880Z,93.50
2019-04-03T13:47:22.285Z,92.90
2019-04-03T13:49:53.040Z,92.80
2019-04-03T13:52:23.993Z,93.10
2019-04-03T13:54:59.282Z,93.50
2019-04-03T13:57:30.608Z,93.30
2019-04-03T14:00:03.355Z,93.70
2019-04-03T14:02:32.049Z,95.10
2019-04-03T14:05:01.853Z,95.50
2019-04-03T14:07:32.205Z,95.40
2019-04-03T14:10:02.207Z,96.40
2019-04-03T14:12:32.121Z,97.40
2019-04-03T14:15:05.032Z,97.90
2019-04-03T14:17:36.285Z,98.00
2019-04-03T14:20:07.577Z,98.60
2019-04-03T14:22:38.369Z,98.60
2019-04-03T14:25:19.807Z,98.50
2019-04-03T14:27:40.707Z,99.00
2019-04-03T14:30:11.892Z,98.40
2019-04-03T14:32:44.843Z,99.10
2019-04-03T14:35:41.097Z,98.50
2019-04-03T14:37:44.488Z,97.60
2019-04-03T14:40:15.613Z,96.80
2019-04-03T14:42:45.312Z,97.50
2019-04-03T14:45:15.322Z,97.80
2019-04-03T14:47:45.483Z,98.50
2019-04-03T14:50:15.016Z,97.60
2019-04-03T14:52:47.702Z,98.00
2019-04-03T14:55:19.779Z,98.00
2019-04-03T14:57:46.671Z,97.10
2019-04-03T15:00:26.108Z,96.70
2019-04-03T15:02:48.054Z,96.80
2019-04-03T15:05:17.559Z,96.70
2019-04-03T15:07:49.046Z,97.00
2019-04-03T15:10:18.583Z,95.90
2019-04-03T15:12:48.040Z,94.60
2019-04-03T15:15:19.141Z,93.90
2019-04-03T15:17:48.800Z,94.10
2019-04-03T15:20:19.831Z,94.80
2019-04-03T15:22:51.699Z,95.20
2019-04-03T15:25:21.629Z,94.80
2019-04-03T15:27:51.608Z,94.20
2019-04-03T15:30:24.561Z,95.40
2019-04-03T15:32:53.202Z,96.70
2019-04-03T15:35:23.064Z,97.60
2019-04-03T15:37:52.662Z,96.60
2019-04-03T15:40:25.877Z,97.50
2019-04-03T15:42:56.826Z,98.70
2019-04-03T15:45:29.150Z,99.90
2019-04-03T15:47:58.717Z,99.90
2019-04-03T15:50:30.203Z,99.90
2019-04-03T15:52:59.552Z,99.90
2019-04-03T15:55:28.978Z,99.90
2019-04-03T15:57:58.354Z,99.90
2019-04-03T16:00:28.489Z,99.90
2019-04-03T16:02:58.137Z,99.90
2019-04-03T16:05:29.606Z,99.90
2019-04-03T16:07:58.747Z,99.90
2019-04-03T16:10:28.182Z,99.90
2019-04-03T16:12:57.798Z,99.90
2019-04-03T16:15:27.175Z,99.90
2019-04-03T16:17:56.743Z,99.90
2019-04-03T16:20:26.537Z,99.90
2019-04-03T16:22:56.202Z,99.90
2019-04-03T16:25:25.585Z,99.90
2019-04-03T16:27:54.955Z,99.90
2019-04-03T16:30:24.388Z,99.90
2019-04-03T16:32:56.977Z,99.90
2019-04-03T16:35:25.025Z,99.90
2019-04-03T16:37:56.519Z,99.90
2019-04-03T16:40:25.546Z,99.90
2019-04-03T16:42:55.289Z,99.90
2019-04-03T16:45:24.643Z,99.90
2019-04-03T16:47:54.270Z,99.90
2019-04-03T16:50:26.231Z,99.90
2019-04-03T16:52:54.759Z,99.90
2019-04-03T16:55:24.458Z,99.90
2019-04-03T16:57:54.837Z,99.90
2019-04-03T17:00:25.093Z,99.90
2019-04-03T17:02:56.098Z,99.90
2019-04-03T17:05:25.712Z,99.90
2019-04-03T17:07:55.609Z,99.90
2019-04-03T17:10:25.072Z,99.90
2019-04-03T17:12:54.969Z,99.90
2019-04-03T17:15:24.636Z,99.90
2019-04-03T17:17:54.759Z,99.90
2019-04-03T17:20:24.822Z,99.90
2019-04-03T17:22:54.787Z,99.90
2019-04-03T17:25:27.352Z,99.90
2019-04-03T17:27:58.109Z,99.90
2019-04-03T17:30:27.758Z,99.90
2019-04-03T17:32:57.523Z,99.90
2019-04-03T17:35:27.637Z,99.90
2019-04-03T17:38:00.927Z,99.90
2019-04-03T17:40:32.836Z,99.90
2019-04-03T17:43:02.316Z,99.90
2019-04-03T17:45:32.225Z,99.90
2019-04-03T17:48:02.750Z,99.90
2019-04-03T17:50:32.237Z,99.90
2019-04-03T17:53:01.723Z,99.90
2019-04-03T17:55:34.164Z,99.90
2019-04-03T17:58:03.741Z,99.90
2019-04-03T18:00:33.491Z,99.90
2019-04-03T18:03:02.938Z,99.90
2019-04-03T18:05:33.299Z,99.90
2019-04-03T18:08:05.123Z,99.90
2019-04-03T18:10:34.664Z,99.90
2019-04-03T18:13:04.140Z,99.90
2019-04-03T18:15:33.457Z,99.90
2019-04-03T18:18:03.372Z,99.90
2019-04-03T18:20:32.838Z,99.90
2019-04-03T18:23:02.164Z,99.90
2019-04-03T18:25:31.496Z,99.90
2019-04-03T18:28:00.955Z,99.90
2019-04-03T18:30:30.479Z,99.90
2019-04-03T18:32:59.879Z,99.90
2019-04-03T18:35:29.240Z,99.90
2019-04-03T18:37:59.811Z,99.90
2019-04-03T18:40:29.129Z,99.90
2019-04-03T18:42:58.529Z,99.90
2019-04-03T18:45:27.922Z,99.90
2019-04-03T18:47:57.297Z,99.90
2019-04-03T18:50:26.755Z,99.90
2019-04-03T18:52:56.235Z,99.90
2019-04-03T18:55:25.560Z,99.90
2019-04-03T18:57:54.960Z,99.90
2019-04-03T19:00:24.385Z,99.90
2019-04-03T19:02:53.772Z,99.90
2019-04-03T19:05:23.190Z,99.90
2019-04-03T19:07:54.326Z,99.90
2019-04-03T19:10:23.810Z,99.90
2019-04-03T19:12:53.220Z,99.90
2019-04-03T19:15:22.585Z,99.90
2019-04-03T19:17:59.950Z,99.90
2019-04-03T19:20:23.276Z,99.90
2019-04-03T19:23:01.852Z,99.90
2019-04-03T19:25:23.905Z,99.90
2019-04-03T19:27:53.278Z,99.90
2019-04-03T19:30:22.592Z,99.90
2019-04-03T19:32:51.971Z,99.90
2019-04-03T19:35:21.399Z,99.90
2019-04-03T19:37:52.350Z,99.90
2019-04-03T19:40:21.829Z,99.90
2019-04-03T19:42:51.212Z,99.90
2019-04-03T19:45:22.962Z,99.90
2019-04-03T19:47:54.809Z,99.90
2019-04-03T19:50:23.773Z,99.90
2019-04-03T19:52:55.578Z,99.90
2019-04-03T19:55:24.912Z,99.90
2019-04-03T19:57:57.446Z,99.90
2019-04-03T20:00:26.402Z,99.90
2019-04-03T20:02:57.895Z,99.90
2019-04-03T20:05:27.230Z,99.90
2019-04-03T20:07:58.608Z,99.90
2019-04-03T20:10:27.668Z,99.90
2019-04-03T20:12:56.972Z,99.90
2019-04-03T20:15:26.359Z,99.90
2019-04-03T20:17:55.746Z,99.90
2019-04-03T20:20:25.121Z,99.90
2019-04-03T20:22:54.573Z,99.90
2019-04-03T20:25:24.045Z,99.90
2019-04-03T20:27:56.749Z,99.90
2019-04-03T20:30:24.463Z,99.90
2019-04-03T20:32:53.861Z,99.90
2019-04-03T20:35:23.308Z,99.90
2019-04-03T20:37:52.673Z,99.90
2019-04-03T20:40:22.039Z,99.90
2019-04-03T20:42:51.460Z,99.90
2019-04-03T20:45:21.199Z,99.90
2019-04-03T20:47:50.662Z,99.90
2019-04-03T20:50:20.566Z,99.90
2019-04-03T20:52:49.911Z,99.90
2019-04-03T20:55:19.253Z,99.90
2019-04-03T20:57:55.272Z,99.90
2019-04-03T21:00:19.954Z,99.90
2019-04-03T21:02:49.300Z,99.90
2019-04-03T21:05:20.235Z,99.90
2019-04-03T21:07:49.590Z,99.90
2019-04-03T21:10:18.964Z,99.90
2019-04-03T21:12:48.276Z,99.90
2019-04-03T21:15:17.613Z,99.90
2019-04-03T21:17:49.690Z,99.90
2019-04-03T21:20:18.027Z,99.90
2019-04-03T21:22:47.309Z,99.90
2019-04-03T21:25:16.707Z,99.90
2019-04-03T21:27:46.024Z,99.90
2019-04-03T21:30:15.478Z,99.90
2019-04-03T21:32:44.839Z,99.90
2019-04-03T21:35:14.200Z,99.90
2019-04-03T21:37:43.524Z,99.90
2019-04-03T21:40:15.105Z,99.90
2019-04-03T21:42:44.080Z,99.90
2019-04-03T21:45:13.369Z,99.90
2019-04-03T21:47:43.253Z,99.90
2019-04-03T21:50:12.646Z,99.90
2019-04-03T21:52:42.000Z,99.90
2019-04-03T21:55:11.447Z,99.90
2019-04-03T21:57:40.774Z,99.90
2019-04-03T22:00:13.933Z,99.90
2019-04-03T22:02:45.009Z,99.90
2019-04-03T22:05:14.636Z,99.90
2019-04-03T22:07:44.003Z,99.90
2019-04-03T22:10:13.322Z,99.90
2019-04-03T22:12:43.587Z,99.90
2019-04-03T22:15:14.344Z,99.90
2019-04-03T22:17:43.924Z,99.90
2019-04-03T22:20:13.360Z,99.90
2019-04-03T22:22:42.695Z,99.90
2019-04-03T22:25:12.012Z,99.90
2019-04-03T22:27:42.767Z,99.90
2019-04-03T22:30:12.365Z,99.90
2019-04-03T22:32:41.663Z,99.90
2019-04-03T22:35:11.008Z,99.90
2019-04-03T22:37:40.344Z,99.90
2019-04-03T22:40:10.899Z,99.90
2019-04-03T22:42:40.301Z,99.90
2019-04-03T22:45:09.735Z,99.90
2019-04-03T22:47:39.081Z,99.90
2019-04-03T22:50:08.383Z,99.90
2019-04-03T22:52:39.644Z,99.90
2019-04-03T22:55:08.808Z,99.90
2019-04-03T22:57:38.128Z,99.90
2019-04-03T23:00:07.899Z,99.90
2019-04-03T23:02:37.179Z,99.90
2019-04-03T23:05:06.757Z,99.90
2019-04-03T23:07:36.188Z,99.90
2019-04-03T23:10:05.736Z,99.90
2019-04-03T23:12:35.066Z,99.90
2019-04-03T23:15:04.407Z,99.90
2019-04-03T23:17:33.729Z,99.90
2019-04-03T23:20:03.034Z,99.90
2019-04-03T23:22:33.015Z,99.90
2019-04-03T23:25:02.405Z,99.90
2019-04-03T23:27:32.983Z,99.90
2019-04-03T23:30:02.843Z,99.90
2019-04-03T23:32:32.143Z,99.90
2019-04-03T23:35:01.472Z,99.90
2019-04-03T23:37:30.892Z,99.90
2019-04-03T23:40:01.010Z,99.90
2019-04-03T23:42:30.895Z,99.90
2019-04-03T23:45:00.237Z,99.90
2019-04-03T23:47:29.566Z,99.90
2019-04-03T23:49:59.546Z,99.90
2019-04-03T23:52:29.931Z,99.90
2019-04-03T23:54:59.921Z,99.90
2019-04-03T23:57:29.251Z,99.90
2019-04-03T23:59:58.572Z,99.90
